sensor_id;sensor_type;location;lat;lon;timestamp;P1;durP1;ratioP1;P2;durP2;ratioP2
83429;SDS011;73362;50.952;6.952;2024-02-04T00:01:33;1.53;;;1.00;;
83429;SDS011;73362;50.952;6.952;2024-02-04T00:04:01;1.40;;;1.10;;
83429;SDS011;73362;50.952;6.952;2024-02-04T00:06:29;1.17;;;1.17;;
83429;SDS011;73362;50.952;6.952;2024-02-04T00:08:57;1.60;;;1.50;;
83429;SDS011;73362;50.952;6.952;2024-02-04T00:11:25;2.23;;;2.03;;
83429;SDS011;73362;50.952;6.952;2024-02-04T00:13:53;3.13;;;2.67;;
83429;SDS011;73362;50.952;6.952;2024-02-04T00:16:21;3.50;;;3.20;;
83429;SDS011;73362;50.952;6.952;2024-02-04T00:18:49;5.33;;;4.20;;
83429;SDS011;73362;50.952;6.952;2024-02-04T00:21:17;5.40;;;4.87;;
83429;SDS011;73362;50.952;6.952;2024-02-04T00:23:45;6.40;;;5.73;;
83429;SDS011;73362;50.952;6.952;2024-02-04T00:26:13;8.20;;;6.50;;
83429;SDS011;73362;50.952;6.952;2024-02-04T00:28:41;7.93;;;6.83;;
83429;SDS011;73362;50.952;6.952;2024-02-04T00:31:09;10.03;;;7.50;;
83429;SDS011;73362;50.952;6.952;2024-02-04T00:33:37;10.80;;;8.27;;
83429;SDS011;73362;50.952;6.952;2024-02-04T00:36:05;10.47;;;8.30;;
83429;SDS011;73362;50.952;6.952;2024-02-04T00:38:33;10.53;;;7.90;;
83429;SDS011;73362;50.952;6.952;2024-02-04T00:41:01;10.13;;;7.30;;
83429;SDS011;73362;50.952;6.952;2024-02-04T00:43:29;9.90;;;7.77;;
83429;SDS011;73362;50.952;6.952;2024-02-04T00:45:58;8.07;;;7.23;;
83429;SDS011;73362;50.952;6.952;2024-02-04T00:48:25;7.83;;;6.63;;
83429;SDS011;73362;50.952;6.952;2024-02-04T00:50:54;7.07;;;6.37;;
83429;SDS011;73362;50.952;6.952;2024-02-04T00:53:22;6.30;;;5.47;;
83429;SDS011;73362;50.952;6.952;2024-02-04T00:55:50;8.27;;;6.30;;
83429;SDS011;73362;50.952;6.952;2024-02-04T00:58:18;6.00;;;5.40;;
83429;SDS011;73362;50.952;6.952;2024-02-04T01:00:46;8.07;;;5.83;;
83429;SDS011;73362;50.952;6.952;2024-02-04T01:03:14;6.27;;;4.80;;
83429;SDS011;73362;50.952;6.952;2024-02-04T01:05:42;6.73;;;4.87;;
83429;SDS011;73362;50.952;6.952;2024-02-04T01:08:10;6.37;;;4.50;;
83429;SDS011;73362;50.952;6.952;2024-02-04T01:10:38;5.37;;;4.27;;
83429;SDS011;73362;50.952;6.952;2024-02-04T01:13:06;4.53;;;3.93;;
83429;SDS011;73362;50.952;6.952;2024-02-04T01:15:34;3.90;;;3.60;;
83429;SDS011;73362;50.952;6.952;2024-02-04T01:18:02;3.43;;;3.13;;
83429;SDS011;73362;50.952;6.952;2024-02-04T01:20:30;3.23;;;3.00;;
83429;SDS011;73362;50.952;6.952;2024-02-04T01:22:58;3.60;;;3.30;;
83429;SDS011;73362;50.952;6.952;2024-02-04T01:25:26;2.50;;;2.30;;
83429;SDS011;73362;50.952;6.952;2024-02-04T01:27:54;2.23;;;2.13;;
83429;SDS011;73362;50.952;6.952;2024-02-04T01:30:22;2.73;;;2.40;;
83429;SDS011;73362;50.952;6.952;2024-02-04T01:32:50;2.30;;;2.10;;
83429;SDS011;73362;50.952;6.952;2024-02-04T01:35:18;3.33;;;2.40;;
83429;SDS011;73362;50.952;6.952;2024-02-04T01:37:46;2.30;;;2.10;;
83429;SDS011;73362;50.952;6.952;2024-02-04T01:40:15;2.27;;;2.10;;
83429;SDS011;73362;50.952;6.952;2024-02-04T01:42:43;2.23;;;2.13;;
83429;SDS011;73362;50.952;6.952;2024-02-04T01:45:11;2.30;;;2.20;;
83429;SDS011;73362;50.952;6.952;2024-02-04T01:47:39;2.30;;;2.20;;
83429;SDS011;73362;50.952;6.952;2024-02-04T01:50:07;2.30;;;2.10;;
83429;SDS011;73362;50.952;6.952;2024-02-04T01:52:36;2.10;;;1.90;;
83429;SDS011;73362;50.952;6.952;2024-02-04T01:55:04;2.53;;;2.37;;
83429;SDS011;73362;50.952;6.952;2024-02-04T01:57:32;2.77;;;2.40;;
83429;SDS011;73362;50.952;6.952;2024-02-04T02:00:00;2.20;;;2.10;;
83429;SDS011;73362;50.952;6.952;2024-02-04T02:02:28;2.20;;;2.10;;
83429;SDS011;73362;50.952;6.952;2024-02-04T02:04:56;2.50;;;2.30;;
83429;SDS011;73362;50.952;6.952;2024-02-04T02:07:24;2.60;;;2.40;;
83429;SDS011;73362;50.952;6.952;2024-02-04T02:09:52;2.50;;;2.30;;
83429;SDS011;73362;50.952;6.952;2024-02-04T02:12:23;3.10;;;2.33;;
83429;SDS011;73362;50.952;6.952;2024-02-04T02:14:50;2.60;;;2.40;;
83429;SDS011;73362;50.952;6.952;2024-02-04T02:17:21;3.03;;;2.10;;
83429;SDS011;73362;50.952;6.952;2024-02-04T02:19:54;2.60;;;2.40;;
83429;SDS011;73362;50.952;6.952;2024-02-04T02:22:25;3.67;;;2.23;;
83429;SDS011;73362;50.952;6.952;2024-02-04T02:24:52;2.97;;;2.73;;
83429;SDS011;73362;50.952;6.952;2024-02-04T02:27:20;3.93;;;2.13;;
83429;SDS011;73362;50.952;6.952;2024-02-04T02:29:48;2.30;;;2.10;;
83429;SDS011;73362;50.952;6.952;2024-02-04T02:32:16;2.80;;;2.50;;
83429;SDS011;73362;50.952;6.952;2024-02-04T02:34:44;3.23;;;2.57;;
83429;SDS011;73362;50.952;6.952;2024-02-04T02:37:16;4.37;;;2.80;;
83429;SDS011;73362;50.952;6.952;2024-02-04T02:39:48;3.80;;;2.53;;
83429;SDS011;73362;50.952;6.952;2024-02-04T02:42:13;2.80;;;2.60;;
83429;SDS011;73362;50.952;6.952;2024-02-04T02:44:42;2.53;;;2.20;;
83429;SDS011;73362;50.952;6.952;2024-02-04T02:47:10;2.43;;;2.23;;
83429;SDS011;73362;50.952;6.952;2024-02-04T02:49:38;3.60;;;2.50;;
83429;SDS011;73362;50.952;6.952;2024-02-04T02:52:06;4.30;;;2.47;;
83429;SDS011;73362;50.952;6.952;2024-02-04T02:54:34;3.10;;;2.67;;
83429;SDS011;73362;50.952;6.952;2024-02-04T02:57:02;3.20;;;2.50;;
83429;SDS011;73362;50.952;6.952;2024-02-04T02:59:30;3.27;;;2.40;;
83429;SDS011;73362;50.952;6.952;2024-02-04T03:01:58;3.30;;;2.90;;
83429;SDS011;73362;50.952;6.952;2024-02-04T03:04:26;3.83;;;2.97;;
83429;SDS011;73362;50.952;6.952;2024-02-04T03:06:54;5.70;;;2.90;;
83429;SDS011;73362;50.952;6.952;2024-02-04T03:09:22;2.90;;;2.70;;
83429;SDS011;73362;50.952;6.952;2024-02-04T03:11:50;2.97;;;2.77;;
83429;SDS011;73362;50.952;6.952;2024-02-04T03:14:18;2.90;;;2.67;;
83429;SDS011;73362;50.952;6.952;2024-02-04T03:16:46;4.17;;;2.53;;
83429;SDS011;73362;50.952;6.952;2024-02-04T03:19:14;3.13;;;2.83;;
83429;SDS011;73362;50.952;6.952;2024-02-04T03:21:42;3.20;;;2.63;;
83429;SDS011;73362;50.952;6.952;2024-02-04T03:24:10;3.17;;;2.80;;
83429;SDS011;73362;50.952;6.952;2024-02-04T03:26:38;3.27;;;2.97;;
83429;SDS011;73362;50.952;6.952;2024-02-04T03:29:06;2.73;;;2.50;;
83429;SDS011;73362;50.952;6.952;2024-02-04T03:31:34;3.10;;;2.80;;
83429;SDS011;73362;50.952;6.952;2024-02-04T03:34:02;3.03;;;2.80;;
83429;SDS011;73362;50.952;6.952;2024-02-04T03:36:30;3.00;;;2.80;;
83429;SDS011;73362;50.952;6.952;2024-02-04T03:38:59;3.83;;;3.47;;
83429;SDS011;73362;50.952;6.952;2024-02-04T03:41:27;3.80;;;3.23;;
83429;SDS011;73362;50.952;6.952;2024-02-04T03:43:55;5.10;;;3.03;;
83429;SDS011;73362;50.952;6.952;2024-02-04T03:46:23;3.47;;;3.17;;
83429;SDS011;73362;50.952;6.952;2024-02-04T03:48:51;3.87;;;3.57;;
83429;SDS011;73362;50.952;6.952;2024-02-04T03:51:19;5.10;;;3.70;;
83429;SDS011;73362;50.952;6.952;2024-02-04T03:53:47;4.00;;;3.60;;
83429;SDS011;73362;50.952;6.952;2024-02-04T03:56:15;4.77;;;3.97;;
83429;SDS011;73362;50.952;6.952;2024-02-04T03:58:43;4.87;;;4.33;;
83429;SDS011;73362;50.952;6.952;2024-02-04T04:01:12;4.37;;;3.97;;
83429;SDS011;73362;50.952;6.952;2024-02-04T04:03:40;4.70;;;4.00;;
83429;SDS011;73362;50.952;6.952;2024-02-04T04:06:08;4.77;;;4.27;;
83429;SDS011;73362;50.952;6.952;2024-02-04T04:08:36;5.97;;;4.30;;
83429;SDS011;73362;50.952;6.952;2024-02-04T04:11:04;4.87;;;4.30;;
83429;SDS011;73362;50.952;6.952;2024-02-04T04:13:31;4.60;;;4.20;;
83429;SDS011;73362;50.952;6.952;2024-02-04T04:16:00;5.27;;;4.20;;
83429;SDS011;73362;50.952;6.952;2024-02-04T04:18:28;4.27;;;3.87;;
83429;SDS011;73362;50.952;6.952;2024-02-04T04:20:56;4.90;;;3.93;;
83429;SDS011;73362;50.952;6.952;2024-02-04T04:23:24;5.17;;;4.13;;
83429;SDS011;73362;50.952;6.952;2024-02-04T04:25:52;4.33;;;3.80;;
83429;SDS011;73362;50.952;6.952;2024-02-04T04:28:20;4.00;;;3.60;;
83429;SDS011;73362;50.952;6.952;2024-02-04T04:30:48;3.83;;;3.40;;
83429;SDS011;73362;50.952;6.952;2024-02-04T04:33:16;4.73;;;3.50;;
83429;SDS011;73362;50.952;6.952;2024-02-04T04:35:44;3.50;;;3.20;;
83429;SDS011;73362;50.952;6.952;2024-02-04T04:38:12;3.33;;;2.93;;
83429;SDS011;73362;50.952;6.952;2024-02-04T04:40:40;3.50;;;3.20;;
83429;SDS011;73362;50.952;6.952;2024-02-04T04:43:08;3.93;;;2.90;;
83429;SDS011;73362;50.952;6.952;2024-02-04T04:45:36;3.60;;;3.27;;
83429;SDS011;73362;50.952;6.952;2024-02-04T04:48:05;3.97;;;3.57;;
83429;SDS011;73362;50.952;6.952;2024-02-04T04:50:33;4.40;;;3.33;;
83429;SDS011;73362;50.952;6.952;2024-02-04T04:53:01;4.03;;;3.57;;
83429;SDS011;73362;50.952;6.952;2024-02-04T04:55:29;5.73;;;3.17;;
83429;SDS011;73362;50.952;6.952;2024-02-04T04:57:57;5.80;;;3.70;;
83429;SDS011;73362;50.952;6.952;2024-02-04T05:00:25;5.20;;;4.00;;
83429;SDS011;73362;50.952;6.952;2024-02-04T05:02:53;5.60;;;4.00;;
83429;SDS011;73362;50.952;6.952;2024-02-04T05:05:21;5.47;;;4.33;;
83429;SDS011;73362;50.952;6.952;2024-02-04T05:07:49;5.53;;;4.30;;
83429;SDS011;73362;50.952;6.952;2024-02-04T05:10:17;4.50;;;4.10;;
83429;SDS011;73362;50.952;6.952;2024-02-04T05:12:45;4.40;;;4.00;;
83429;SDS011;73362;50.952;6.952;2024-02-04T05:15:13;5.07;;;4.60;;
83429;SDS011;73362;50.952;6.952;2024-02-04T05:17:41;6.10;;;4.53;;
83429;SDS011;73362;50.952;6.952;2024-02-04T05:20:10;6.27;;;4.50;;
83429;SDS011;73362;50.952;6.952;2024-02-04T05:22:38;5.63;;;4.67;;
83429;SDS011;73362;50.952;6.952;2024-02-04T05:25:06;5.13;;;4.27;;
83429;SDS011;73362;50.952;6.952;2024-02-04T05:27:35;6.83;;;4.97;;
83429;SDS011;73362;50.952;6.952;2024-02-04T05:30:03;6.33;;;4.63;;
83429;SDS011;73362;50.952;6.952;2024-02-04T05:32:31;5.20;;;4.60;;
83429;SDS011;73362;50.952;6.952;2024-02-04T05:34:59;5.17;;;4.53;;
83429;SDS011;73362;50.952;6.952;2024-02-04T05:37:27;5.13;;;4.63;;
83429;SDS011;73362;50.952;6.952;2024-02-04T05:39:55;6.10;;;4.80;;
83429;SDS011;73362;50.952;6.952;2024-02-04T05:42:23;5.27;;;4.63;;
83429;SDS011;73362;50.952;6.952;2024-02-04T05:44:51;4.90;;;4.40;;
83429;SDS011;73362;50.952;6.952;2024-02-04T05:47:19;5.77;;;4.53;;
83429;SDS011;73362;50.952;6.952;2024-02-04T05:49:47;5.50;;;4.73;;
83429;SDS011;73362;50.952;6.952;2024-02-04T05:52:15;7.53;;;5.43;;
83429;SDS011;73362;50.952;6.952;2024-02-04T05:54:43;6.50;;;4.70;;
83429;SDS011;73362;50.952;6.952;2024-02-04T05:57:11;7.03;;;5.10;;
83429;SDS011;73362;50.952;6.952;2024-02-04T05:59:39;5.80;;;5.03;;
83429;SDS011;73362;50.952;6.952;2024-02-04T06:02:07;6.87;;;5.10;;
83429;SDS011;73362;50.952;6.952;2024-02-04T06:04:35;6.07;;;4.73;;
83429;SDS011;73362;50.952;6.952;2024-02-04T06:07:03;7.07;;;5.40;;
83429;SDS011;73362;50.952;6.952;2024-02-04T06:09:33;6.10;;;5.30;;
83429;SDS011;73362;50.952;6.952;2024-02-04T06:12:00;6.43;;;5.03;;
83429;SDS011;73362;50.952;6.952;2024-02-04T06:14:28;5.10;;;4.60;;
83429;SDS011;73362;50.952;6.952;2024-02-04T06:16:56;5.37;;;4.47;;
83429;SDS011;73362;50.952;6.952;2024-02-04T06:19:24;6.30;;;4.47;;
83429;SDS011;73362;50.952;6.952;2024-02-04T06:21:52;5.50;;;4.60;;
83429;SDS011;73362;50.952;6.952;2024-02-04T06:24:20;4.77;;;4.27;;
83429;SDS011;73362;50.952;6.952;2024-02-04T06:26:49;4.90;;;4.40;;
83429;SDS011;73362;50.952;6.952;2024-02-04T06:29:17;4.90;;;4.13;;
83429;SDS011;73362;50.952;6.952;2024-02-04T06:31:45;4.50;;;4.10;;
83429;SDS011;73362;50.952;6.952;2024-02-04T06:34:13;6.17;;;4.43;;
83429;SDS011;73362;50.952;6.952;2024-02-04T06:36:42;6.00;;;4.20;;
83429;SDS011;73362;50.952;6.952;2024-02-04T06:39:10;4.60;;;4.20;;
83429;SDS011;73362;50.952;6.952;2024-02-04T06:41:38;4.37;;;3.90;;
83429;SDS011;73362;50.952;6.952;2024-02-04T06:44:06;5.10;;;3.80;;
83429;SDS011;73362;50.952;6.952;2024-02-04T06:46:34;3.73;;;3.30;;
83429;SDS011;73362;50.952;6.952;2024-02-04T06:49:02;3.20;;;2.90;;
83429;SDS011;73362;50.952;6.952;2024-02-04T06:51:30;3.40;;;3.10;;
83429;SDS011;73362;50.952;6.952;2024-02-04T06:53:58;2.90;;;2.60;;
83429;SDS011;73362;50.952;6.952;2024-02-04T06:56:26;5.17;;;2.90;;
83429;SDS011;73362;50.952;6.952;2024-02-04T06:58:54;2.00;;;1.90;;
83429;SDS011;73362;50.952;6.952;2024-02-04T07:01:22;2.10;;;2.00;;
83429;SDS011;73362;50.952;6.952;2024-02-04T07:03:50;2.10;;;1.90;;
83429;SDS011;73362;50.952;6.952;2024-02-04T07:06:18;3.17;;;1.90;;
83429;SDS011;73362;50.952;6.952;2024-02-04T07:08:46;3.10;;;2.00;;
83429;SDS011;73362;50.952;6.952;2024-02-04T07:11:14;1.90;;;1.50;;
83429;SDS011;73362;50.952;6.952;2024-02-04T07:13:42;2.10;;;1.83;;
83429;SDS011;73362;50.952;6.952;2024-02-04T07:16:10;1.80;;;1.60;;
83429;SDS011;73362;50.952;6.952;2024-02-04T07:18:38;1.73;;;1.40;;
83429;SDS011;73362;50.952;6.952;2024-02-04T07:21:06;1.67;;;1.57;;
83429;SDS011;73362;50.952;6.952;2024-02-04T07:23:34;2.17;;;1.50;;
83429;SDS011;73362;50.952;6.952;2024-02-04T07:26:02;2.53;;;1.50;;
83429;SDS011;73362;50.952;6.952;2024-02-04T07:28:30;1.37;;;1.27;;
83429;SDS011;73362;50.952;6.952;2024-02-04T07:30:58;1.43;;;1.33;;
83429;SDS011;73362;50.952;6.952;2024-02-04T07:33:26;1.70;;;1.50;;
83429;SDS011;73362;50.952;6.952;2024-02-04T07:35:54;1.53;;;1.20;;
83429;SDS011;73362;50.952;6.952;2024-02-04T07:38:23;1.60;;;1.50;;
83429;SDS011;73362;50.952;6.952;2024-02-04T07:40:51;1.60;;;1.50;;
83429;SDS011;73362;50.952;6.952;2024-02-04T07:43:19;1.60;;;1.50;;
83429;SDS011;73362;50.952;6.952;2024-02-04T07:45:47;1.40;;;1.30;;
83429;SDS011;73362;50.952;6.952;2024-02-04T07:48:15;1.70;;;1.60;;
83429;SDS011;73362;50.952;6.952;2024-02-04T07:50:43;2.20;;;1.63;;
83429;SDS011;73362;50.952;6.952;2024-02-04T07:53:11;1.20;;;1.20;;
83429;SDS011;73362;50.952;6.952;2024-02-04T07:55:39;1.30;;;1.30;;
83429;SDS011;73362;50.952;6.952;2024-02-04T07:58:07;1.13;;;1.13;;
83429;SDS011;73362;50.952;6.952;2024-02-04T08:00:35;1.40;;;1.23;;
83429;SDS011;73362;50.952;6.952;2024-02-04T08:03:03;1.33;;;1.33;;
83429;SDS011;73362;50.952;6.952;2024-02-04T08:05:31;1.20;;;1.20;;
83429;SDS011;73362;50.952;6.952;2024-02-04T08:07:59;1.40;;;1.30;;
83429;SDS011;73362;50.952;6.952;2024-02-04T08:10:27;1.37;;;1.27;;
83429;SDS011;73362;50.952;6.952;2024-02-04T08:12:55;1.50;;;1.13;;
83429;SDS011;73362;50.952;6.952;2024-02-04T08:15:23;1.30;;;1.30;;
83429;SDS011;73362;50.952;6.952;2024-02-04T08:17:51;1.77;;;1.67;;
83429;SDS011;73362;50.952;6.952;2024-02-04T08:20:19;1.93;;;1.50;;
83429;SDS011;73362;50.952;6.952;2024-02-04T08:22:47;1.20;;;1.20;;
83429;SDS011;73362;50.952;6.952;2024-02-04T08:25:15;1.37;;;1.27;;
83429;SDS011;73362;50.952;6.952;2024-02-04T08:27:43;4.60;;;1.63;;
83429;SDS011;73362;50.952;6.952;2024-02-04T08:30:11;1.67;;;1.23;;
83429;SDS011;73362;50.952;6.952;2024-02-04T08:32:39;1.33;;;1.23;;
83429;SDS011;73362;50.952;6.952;2024-02-04T08:35:07;1.40;;;1.30;;
83429;SDS011;73362;50.952;6.952;2024-02-04T08:37:35;2.50;;;1.40;;
83429;SDS011;73362;50.952;6.952;2024-02-04T08:40:05;1.60;;;1.50;;
83429;SDS011;73362;50.952;6.952;2024-02-04T08:42:32;1.50;;;1.40;;
83429;SDS011;73362;50.952;6.952;2024-02-04T08:45:00;2.63;;;1.73;;
83429;SDS011;73362;50.952;6.952;2024-02-04T08:47:28;1.90;;;1.70;;
83429;SDS011;73362;50.952;6.952;2024-02-04T08:49:56;1.70;;;1.60;;
83429;SDS011;73362;50.952;6.952;2024-02-04T08:52:24;2.10;;;1.70;;
83429;SDS011;73362;50.952;6.952;2024-02-04T08:54:52;2.40;;;1.90;;
83429;SDS011;73362;50.952;6.952;2024-02-04T08:57:20;3.40;;;1.70;;
83429;SDS011;73362;50.952;6.952;2024-02-04T08:59:48;1.27;;;1.17;;
83429;SDS011;73362;50.952;6.952;2024-02-04T09:02:16;2.67;;;1.70;;
83429;SDS011;73362;50.952;6.952;2024-02-04T09:04:44;1.20;;;1.10;;
83429;SDS011;73362;50.952;6.952;2024-02-04T09:07:12;1.17;;;1.17;;
83429;SDS011;73362;50.952;6.952;2024-02-04T09:09:40;1.30;;;1.20;;
83429;SDS011;73362;50.952;6.952;2024-02-04T09:12:09;1.03;;;1.00;;
83429;SDS011;73362;50.952;6.952;2024-02-04T09:14:37;1.20;;;1.10;;
83429;SDS011;73362;50.952;6.952;2024-02-04T09:17:05;1.10;;;1.00;;
83429;SDS011;73362;50.952;6.952;2024-02-04T09:19:33;0.80;;;0.80;;
83429;SDS011;73362;50.952;6.952;2024-02-04T09:22:01;0.93;;;0.80;;
83429;SDS011;73362;50.952;6.952;2024-02-04T09:24:29;1.43;;;0.90;;
83429;SDS011;73362;50.952;6.952;2024-02-04T09:26:57;0.90;;;0.77;;
83429;SDS011;73362;50.952;6.952;2024-02-04T09:29:25;0.90;;;0.90;;
83429;SDS011;73362;50.952;6.952;2024-02-04T09:31:53;0.60;;;0.60;;
83429;SDS011;73362;50.952;6.952;2024-02-04T09:34:21;1.67;;;1.00;;
83429;SDS011;73362;50.952;6.952;2024-02-04T09:36:49;0.97;;;0.77;;
83429;SDS011;73362;50.952;6.952;2024-02-04T09:39:17;0.70;;;0.70;;
83429;SDS011;73362;50.952;6.952;2024-02-04T09:41:45;0.67;;;0.67;;
83429;SDS011;73362;50.952;6.952;2024-02-04T09:44:13;0.90;;;0.90;;
83429;SDS011;73362;50.952;6.952;2024-02-04T09:46:41;0.90;;;0.90;;
83429;SDS011;73362;50.952;6.952;2024-02-04T09:49:09;1.80;;;0.90;;
83429;SDS011;73362;50.952;6.952;2024-02-04T09:51:37;0.93;;;0.80;;
83429;SDS011;73362;50.952;6.952;2024-02-04T09:54:05;1.07;;;0.97;;
83429;SDS011;73362;50.952;6.952;2024-02-04T09:56:34;1.00;;;1.00;;
83429;SDS011;73362;50.952;6.952;2024-02-04T09:59:02;2.67;;;1.00;;
83429;SDS011;73362;50.952;6.952;2024-02-04T10:01:31;1.00;;;1.00;;
83429;SDS011;73362;50.952;6.952;2024-02-04T10:03:59;1.20;;;1.10;;
83429;SDS011;73362;50.952;6.952;2024-02-04T10:06:27;1.13;;;1.10;;
83429;SDS011;73362;50.952;6.952;2024-02-04T10:08:55;3.13;;;1.23;;
83429;SDS011;73362;50.952;6.952;2024-02-04T10:11:23;1.70;;;1.13;;
83429;SDS011;73362;50.952;6.952;2024-02-04T10:13:51;2.47;;;1.40;;
83429;SDS011;73362;50.952;6.952;2024-02-04T10:16:19;1.83;;;1.10;;
83429;SDS011;73362;50.952;6.952;2024-02-04T10:18:47;2.27;;;1.20;;
83429;SDS011;73362;50.952;6.952;2024-02-04T10:21:18;1.47;;;1.00;;
83429;SDS011;73362;50.952;6.952;2024-02-04T10:23:46;1.57;;;1.30;;
83429;SDS011;73362;50.952;6.952;2024-02-04T10:26:14;1.30;;;1.20;;
83429;SDS011;73362;50.952;6.952;2024-02-04T10:28:44;1.77;;;1.40;;
83429;SDS011;73362;50.952;6.952;2024-02-04T10:31:10;1.77;;;1.40;;
83429;SDS011;73362;50.952;6.952;2024-02-04T10:33:38;2.87;;;1.47;;
83429;SDS011;73362;50.952;6.952;2024-02-04T10:36:06;2.07;;;1.40;;
83429;SDS011;73362;50.952;6.952;2024-02-04T10:38:34;2.00;;;1.43;;
83429;SDS011;73362;50.952;6.952;2024-02-04T10:41:02;2.30;;;1.70;;
83429;SDS011;73362;50.952;6.952;2024-02-04T10:43:31;2.77;;;1.60;;
83429;SDS011;73362;50.952;6.952;2024-02-04T10:46:00;2.20;;;2.00;;
83429;SDS011;73362;50.952;6.952;2024-02-04T10:48:26;2.07;;;1.70;;
83429;SDS011;73362;50.952;6.952;2024-02-04T10:50:55;2.10;;;1.53;;
83429;SDS011;73362;50.952;6.952;2024-02-04T10:53:23;1.80;;;1.63;;
83429;SDS011;73362;50.952;6.952;2024-02-04T10:55:51;1.57;;;1.47;;
83429;SDS011;73362;50.952;6.952;2024-02-04T10:58:19;1.43;;;1.33;;
83429;SDS011;73362;50.952;6.952;2024-02-04T11:00:47;2.00;;;1.20;;
83429;SDS011;73362;50.952;6.952;2024-02-04T11:03:15;1.67;;;1.40;;
83429;SDS011;73362;50.952;6.952;2024-02-04T11:05:43;3.00;;;1.10;;
83429;SDS011;73362;50.952;6.952;2024-02-04T11:08:11;2.17;;;1.10;;
83429;SDS011;73362;50.952;6.952;2024-02-04T11:10:39;2.17;;;1.00;;
83429;SDS011;73362;50.952;6.952;2024-02-04T11:13:07;1.30;;;1.20;;
83429;SDS011;73362;50.952;6.952;2024-02-04T11:15:35;0.77;;;0.77;;
83429;SDS011;73362;50.952;6.952;2024-02-04T11:18:12;0.50;;;0.50;;
83429;SDS011;73362;50.952;6.952;2024-02-04T11:20:46;0.97;;;0.90;;
83429;SDS011;73362;50.952;6.952;2024-02-04T11:23:25;0.60;;;0.60;;
83429;SDS011;73362;50.952;6.952;2024-02-04T11:25:52;0.73;;;0.70;;
83429;SDS011;73362;50.952;6.952;2024-02-04T11:28:20;1.37;;;0.70;;
83429;SDS011;73362;50.952;6.952;2024-02-04T11:30:48;0.70;;;0.70;;
83429;SDS011;73362;50.952;6.952;2024-02-04T11:33:18;0.77;;;0.77;;
83429;SDS011;73362;50.952;6.952;2024-02-04T11:35:46;1.87;;;0.70;;
83429;SDS011;73362;50.952;6.952;2024-02-04T11:38:17;0.70;;;0.70;;
83429;SDS011;73362;50.952;6.952;2024-02-04T11:40:41;0.63;;;0.50;;
83429;SDS011;73362;50.952;6.952;2024-02-04T11:43:10;0.50;;;0.50;;
83429;SDS011;73362;50.952;6.952;2024-02-04T11:45:39;0.83;;;0.63;;
83429;SDS011;73362;50.952;6.952;2024-02-04T11:48:07;1.50;;;0.97;;
83429;SDS011;73362;50.952;6.952;2024-02-04T11:50:35;1.67;;;0.97;;
83429;SDS011;73362;50.952;6.952;2024-02-04T11:53:10;1.40;;;1.00;;
83429;SDS011;73362;50.952;6.952;2024-02-04T11:55:38;1.30;;;1.20;;
83429;SDS011;73362;50.952;6.952;2024-02-04T11:58:05;1.17;;;1.10;;
83429;SDS011;73362;50.952;6.952;2024-02-04T12:00:33;1.40;;;1.30;;
83429;SDS011;73362;50.952;6.952;2024-02-04T12:03:02;1.30;;;1.23;;
83429;SDS011;73362;50.952;6.952;2024-02-04T12:05:31;3.07;;;1.23;;
83429;SDS011;73362;50.952;6.952;2024-02-04T12:08:01;1.50;;;1.40;;
83429;SDS011;73362;50.952;6.952;2024-02-04T12:10:29;3.40;;;1.60;;
83429;SDS011;73362;50.952;6.952;2024-02-04T12:12:58;1.00;;;1.00;;
83429;SDS011;73362;50.952;6.952;2024-02-04T12:15:25;2.33;;;1.37;;
83429;SDS011;73362;50.952;6.952;2024-02-04T12:17:53;1.63;;;1.53;;
83429;SDS011;73362;50.952;6.952;2024-02-04T12:20:21;2.20;;;1.20;;
83429;SDS011;73362;50.952;6.952;2024-02-04T12:22:50;1.53;;;1.10;;
83429;SDS011;73362;50.952;6.952;2024-02-04T12:25:19;1.77;;;1.60;;
83429;SDS011;73362;50.952;6.952;2024-02-04T12:27:47;1.20;;;1.10;;
83429;SDS011;73362;50.952;6.952;2024-02-04T12:30:15;1.00;;;0.90;;
83429;SDS011;73362;50.952;6.952;2024-02-04T12:32:43;1.17;;;1.00;;
83429;SDS011;73362;50.952;6.952;2024-02-04T12:35:13;2.47;;;1.10;;
83429;SDS011;73362;50.952;6.952;2024-02-04T12:40:20;1.60;;;1.10;;
83429;SDS011;73362;50.952;6.952;2024-02-04T12:42:43;1.17;;;1.07;;
83429;SDS011;73362;50.952;6.952;2024-02-04T12:45:13;1.07;;;1.07;;
83429;SDS011;73362;50.952;6.952;2024-02-04T12:47:39;1.53;;;1.43;;
83429;SDS011;73362;50.952;6.952;2024-02-04T12:50:07;3.10;;;1.40;;
83429;SDS011;73362;50.952;6.952;2024-02-04T12:52:35;1.30;;;1.30;;
83429;SDS011;73362;50.952;6.952;2024-02-04T12:55:04;1.70;;;1.20;;
83429;SDS011;73362;50.952;6.952;2024-02-04T12:57:32;1.97;;;1.30;;
83429;SDS011;73362;50.952;6.952;2024-02-04T13:00:04;1.10;;;1.10;;
83429;SDS011;73362;50.952;6.952;2024-02-04T13:02:33;2.43;;;1.23;;
83429;SDS011;73362;50.952;6.952;2024-02-04T13:05:01;1.53;;;1.43;;
83429;SDS011;73362;50.952;6.952;2024-02-04T13:07:29;1.40;;;1.30;;
83429;SDS011;73362;50.952;6.952;2024-02-04T13:09:57;1.63;;;1.53;;
83429;SDS011;73362;50.952;6.952;2024-02-04T13:12:25;1.27;;;1.17;;
83429;SDS011;73362;50.952;6.952;2024-02-04T13:14:57;1.13;;;1.13;;
83429;SDS011;73362;50.952;6.952;2024-02-04T13:17:25;1.43;;;1.13;;
83429;SDS011;73362;50.952;6.952;2024-02-04T13:19:53;1.73;;;1.63;;
83429;SDS011;73362;50.952;6.952;2024-02-04T13:22:22;1.70;;;1.40;;
83429;SDS011;73362;50.952;6.952;2024-02-04T13:24:51;1.67;;;1.50;;
83429;SDS011;73362;50.952;6.952;2024-02-04T13:27:19;2.17;;;1.30;;
83429;SDS011;73362;50.952;6.952;2024-02-04T13:29:47;1.10;;;1.10;;
83429;SDS011;73362;50.952;6.952;2024-02-04T13:32:15;1.43;;;1.30;;
83429;SDS011;73362;50.952;6.952;2024-02-04T13:34:43;1.80;;;1.47;;
83429;SDS011;73362;50.952;6.952;2024-02-04T13:37:11;2.47;;;1.77;;
83429;SDS011;73362;50.952;6.952;2024-02-04T13:39:39;2.20;;;1.50;;
83429;SDS011;73362;50.952;6.952;2024-02-04T13:42:07;1.23;;;1.20;;
83429;SDS011;73362;50.952;6.952;2024-02-04T13:44:35;1.33;;;1.23;;
83429;SDS011;73362;50.952;6.952;2024-02-04T13:47:03;1.07;;;1.07;;
83429;SDS011;73362;50.952;6.952;2024-02-04T13:49:31;1.00;;;1.00;;
83429;SDS011;73362;50.952;6.952;2024-02-04T13:51:59;1.00;;;1.00;;
83429;SDS011;73362;50.952;6.952;2024-02-04T13:54:27;1.90;;;1.30;;
83429;SDS011;73362;50.952;6.952;2024-02-04T13:56:55;1.20;;;1.10;;
83429;SDS011;73362;50.952;6.952;2024-02-04T13:59:24;1.13;;;1.10;;
83429;SDS011;73362;50.952;6.952;2024-02-04T14:01:52;1.37;;;1.27;;
83429;SDS011;73362;50.952;6.952;2024-02-04T14:04:20;1.13;;;0.87;;
83429;SDS011;73362;50.952;6.952;2024-02-04T14:06:48;1.10;;;1.00;;
83429;SDS011;73362;50.952;6.952;2024-02-04T14:09:17;0.90;;;0.90;;
83429;SDS011;73362;50.952;6.952;2024-02-04T14:11:45;0.93;;;0.90;;
83429;SDS011;73362;50.952;6.952;2024-02-04T14:14:13;0.90;;;0.90;;
83429;SDS011;73362;50.952;6.952;2024-02-04T14:16:41;0.90;;;0.77;;
83429;SDS011;73362;50.952;6.952;2024-02-04T14:19:09;0.83;;;0.83;;
83429;SDS011;73362;50.952;6.952;2024-02-04T14:21:37;1.10;;;1.00;;
83429;SDS011;73362;50.952;6.952;2024-02-04T14:24:05;1.97;;;0.90;;
83429;SDS011;73362;50.952;6.952;2024-02-04T14:26:33;1.33;;;0.90;;
83429;SDS011;73362;50.952;6.952;2024-02-04T14:29:01;0.80;;;0.80;;
83429;SDS011;73362;50.952;6.952;2024-02-04T14:31:29;1.73;;;0.77;;
83429;SDS011;73362;50.952;6.952;2024-02-04T14:33:57;1.10;;;1.10;;
83429;SDS011;73362;50.952;6.952;2024-02-04T14:36:25;1.10;;;1.10;;
83429;SDS011;73362;50.952;6.952;2024-02-04T14:38:53;2.00;;;1.07;;
83429;SDS011;73362;50.952;6.952;2024-02-04T14:41:21;1.00;;;1.00;;
83429;SDS011;73362;50.952;6.952;2024-02-04T14:43:49;1.10;;;1.00;;
83429;SDS011;73362;50.952;6.952;2024-02-04T14:46:17;0.93;;;0.93;;
83429;SDS011;73362;50.952;6.952;2024-02-04T14:48:45;0.97;;;0.90;;
83429;SDS011;73362;50.952;6.952;2024-02-04T14:51:13;0.80;;;0.80;;
83429;SDS011;73362;50.952;6.952;2024-02-04T14:53:41;0.97;;;0.97;;
83429;SDS011;73362;50.952;6.952;2024-02-04T14:56:09;0.93;;;0.77;;